Terminal Aerodrome Forecast
Issued by NWS Tulsa, OK

Home | Current Version | Previous Version | Text Only | Print | Product List | Glossary On
Versions: 1 2 3 4 5 6 7 8 9 10 11 12
000
FTUS44 KTSA 052300
TAFTUL
TAF
KTUL 052320Z 0600/0624 17015G25KT P6SM VCTS SCT040CB BKN100
      TEMPO 0603/0607 5SM -TSRA BR BKN050CB
     FM060700 15015KT 5SM -TSRA BR BKN030CB
     FM061200 17012G20KT 4SM -SHRA BR OVC025
     FM061800 17018G27KT P6SM VCTS BKN035CB=

USA.gov is the U.S. government's official web portal to all federal, state and local government web resources and services.